createdAt,value
2022-10-19T00:01:23.607Z,101380.48
2022-10-19T00:04:26.139Z,101379.79
2022-10-19T00:06:54.720Z,101380.26
2022-10-19T00:09:22.726Z,101385.80
2022-10-19T00:11:51.439Z,101388.01
2022-10-19T00:14:23.651Z,101386.09
2022-10-19T00:16:54.420Z,101387.64
2022-10-19T00:19:26.359Z,101388.35
2022-10-19T00:21:54.608Z,101391.75
2022-10-19T00:24:22.420Z,101390.13
2022-10-19T00:26:50.090Z,101394.28
2022-10-19T00:29:17.906Z,101392.21
2022-10-19T00:31:45.715Z,101394.65
2022-10-19T00:34:13.440Z,101392.48
2022-10-19T00:36:41.901Z,101386.30
2022-10-19T00:39:14.385Z,101386.30
2022-10-19T00:41:45.096Z,101380.07
2022-10-19T00:44:12.670Z,101381.13
2022-10-19T00:46:44.294Z,101379.77
2022-10-19T00:49:43.686Z,101381.88
2022-10-19T00:52:18.067Z,101379.66
2022-10-19T00:54:48.883Z,101384.63
2022-10-19T00:57:16.765Z,101382.61
2022-10-19T00:59:45.982Z,101384.16
2022-10-19T01:02:14.018Z,101378.63
2022-10-19T01:04:47.655Z,101378.35
2022-10-19T01:07:15.779Z,101380.47
2022-10-19T01:09:43.389Z,101377.98
2022-10-19T01:12:39.120Z,101375.77
2022-10-19T01:15:26.942Z,101372.55
2022-10-19T01:18:10.009Z,101371.05
2022-10-19T01:20:55.723Z,101370.08
2022-10-19T01:23:49.456Z,101364.16
2022-10-19T01:26:47.541Z,101363.70
2022-10-19T01:29:36.714Z,101361.11
2022-10-19T01:32:47.038Z,101359.34
2022-10-19T01:35:41.324Z,101359.16
2022-10-19T01:38:30.618Z,101362.15
2022-10-19T01:41:57.867Z,101372.22
2022-10-19T01:44:43.877Z,101368.66
2022-10-19T01:47:36.765Z,101367.31
2022-10-19T01:50:14.718Z,101363.03
2022-10-19T01:52:43.203Z,101362.80
2022-10-19T01:55:15.996Z,101362.56
2022-10-19T01:57:48.043Z,101356.35
2022-10-19T02:00:17.070Z,101356.31
2022-10-19T02:02:50.297Z,101354.08
2022-10-19T02:05:21.865Z,101353.61
2022-10-19T02:07:57.879Z,101353.96
2022-10-19T02:10:27.779Z,101345.64
2022-10-19T02:12:56.430Z,101346.73
2022-10-19T02:15:27.388Z,101349.52
2022-10-19T02:17:59.663Z,101343.59
2022-10-19T02:20:28.548Z,101340.13
2022-10-19T02:22:56.736Z,101340.56
2022-10-19T02:25:25.404Z,101341.56
2022-10-19T02:27:53.931Z,101344.21
2022-10-19T02:30:22.359Z,101341.30
2022-10-19T02:32:51.006Z,101342.64
2022-10-19T02:35:18.979Z,101347.56
2022-10-19T02:37:46.630Z,101350.39
2022-10-19T02:40:14.675Z,101349.92
2022-10-19T02:42:57.806Z,101350.28
2022-10-19T02:45:31.915Z,101348.65
2022-10-19T02:48:12.940Z,101352.52
2022-10-19T02:50:52.106Z,101353.69
2022-10-19T02:53:19.913Z,101345.69
2022-10-19T02:55:49.518Z,101337.44
2022-10-19T02:58:17.579Z,101342.84
2022-10-19T03:00:45.381Z,101343.34
2022-10-19T03:03:13.045Z,101341.69
2022-10-19T03:05:40.694Z,101344.17
2022-10-19T03:08:08.410Z,101343.55
2022-10-19T03:10:36.155Z,101340.52
2022-10-19T03:13:03.790Z,101335.87
2022-10-19T03:15:31.436Z,101339.02
2022-10-19T03:17:59.133Z,101339.45
2022-10-19T03:20:26.821Z,101336.23
2022-10-19T03:22:54.716Z,101338.35
2022-10-19T03:25:22.345Z,101345.65
2022-10-19T03:27:49.973Z,101343.16
2022-10-19T03:30:17.760Z,101341.80
2022-10-19T03:32:45.539Z,101340.35
2022-10-19T03:35:13.223Z,101340.76
2022-10-19T03:37:40.861Z,101341.66
2022-10-19T03:40:09.486Z,101336.88
2022-10-19T03:42:37.107Z,101337.98
2022-10-19T03:45:05.772Z,101338.20
2022-10-19T03:47:33.660Z,101330.58
2022-10-19T03:50:01.593Z,101335.55
2022-10-19T03:52:29.319Z,101330.17
2022-10-19T03:54:56.988Z,101336.36
2022-10-19T03:57:24.684Z,101326.27
2022-10-19T03:59:52.347Z,101337.89
2022-10-19T04:02:20.101Z,101335.38
2022-10-19T04:04:47.765Z,101342.61
2022-10-19T04:07:15.414Z,101339.27
2022-10-19T04:09:43.096Z,101342.32
2022-10-19T04:12:10.705Z,101343.90
2022-10-19T04:14:56.305Z,101345.66
2022-10-19T04:17:25.939Z,101349.66
2022-10-19T04:19:53.631Z,101347.29
2022-10-19T04:22:21.301Z,101345.58
2022-10-19T04:24:48.953Z,101350.55
2022-10-19T04:27:16.725Z,101348.80
2022-10-19T04:29:44.380Z,101351.77
2022-10-19T04:32:12.129Z,101353.13
2022-10-19T04:34:40.242Z,101356.90
2022-10-19T04:37:08.170Z,101353.23
2022-10-19T04:39:39.495Z,101354.67
2022-10-19T04:42:07.152Z,101352.17
2022-10-19T04:44:34.784Z,101354.87
2022-10-19T04:47:02.536Z,101353.45
2022-10-19T04:49:30.183Z,101351.68
2022-10-19T04:51:57.898Z,101349.13
2022-10-19T04:54:25.662Z,101344.77
2022-10-19T04:56:53.847Z,101355.41
2022-10-19T04:59:21.555Z,101359.80
2022-10-19T05:01:49.240Z,101355.52
2022-10-19T05:04:16.932Z,101353.94
2022-10-19T05:06:44.610Z,101361.52
2022-10-19T05:09:12.654Z,101350.86
2022-10-19T05:11:40.374Z,101349.89
2022-10-19T05:14:08.615Z,101350.19
2022-10-19T05:16:36.370Z,101352.40
2022-10-19T05:19:04.149Z,101358.63
2022-10-19T05:21:31.896Z,101365.80
2022-10-19T05:23:59.619Z,101363.05
2022-10-19T05:26:28.980Z,101362.11
2022-10-19T05:29:04.743Z,101367.44
2022-10-19T05:31:34.184Z,101368.42
2022-10-19T05:34:03.987Z,101370.12
2022-10-19T05:36:36.705Z,101371.42
2022-10-19T05:39:15.040Z,101369.95
2022-10-19T05:41:44.840Z,101375.74
2022-10-19T05:44:22.241Z,101375.88
2022-10-19T05:46:51.418Z,101377.05
2022-10-19T05:49:21.909Z,101375.92
2022-10-19T05:51:50.300Z,101375.25
2022-10-19T05:54:18.967Z,101379.50
2022-10-19T05:56:47.288Z,101379.98
2022-10-19T05:59:19.196Z,101383.55
2022-10-19T06:01:47.948Z,101385.58
2022-10-19T06:06:45.772Z,101391.27
2022-10-19T06:09:13.506Z,101395.19
2022-10-19T06:11:42.526Z,101396.52
2022-10-19T06:14:16.355Z,101400.98
2022-10-19T06:16:46.066Z,101401.41
2022-10-19T06:19:14.335Z,101401.89
2022-10-19T06:21:46.008Z,101400.44
2022-10-19T06:24:14.600Z,101403.02
2022-10-19T06:26:42.572Z,101403.02
2022-10-19T06:29:10.673Z,101402.71
2022-10-19T06:31:38.559Z,101403.70
2022-10-19T06:34:06.790Z,101408.77
2022-10-19T06:36:34.748Z,101405.16
2022-10-19T06:39:03.034Z,101411.28
2022-10-19T06:41:32.448Z,101414.16
2022-10-19T06:44:03.024Z,101419.52
2022-10-19T06:46:32.229Z,101413.41
2022-10-19T06:49:01.975Z,101417.80
2022-10-19T06:51:33.901Z,101418.46
2022-10-19T06:54:01.882Z,101423.86
2022-10-19T06:56:29.648Z,101423.09
2022-10-19T06:58:58.341Z,101428.00
2022-10-19T07:01:26.135Z,101433.46
2022-10-19T07:03:55.214Z,101434.06
2022-10-19T07:06:23.949Z,101435.40
2022-10-19T07:08:52.987Z,101436.27
2022-10-19T07:11:22.495Z,101443.27
2022-10-19T07:13:52.942Z,101442.52
2022-10-19T07:16:21.880Z,101446.56
2022-10-19T07:18:53.289Z,101447.77
2022-10-19T07:21:23.183Z,101443.05
2022-10-19T07:23:51.513Z,101450.39
2022-10-19T07:26:27.728Z,101449.35
2022-10-19T07:28:57.607Z,101452.70
2022-10-19T07:31:28.007Z,101448.27
2022-10-19T07:34:02.391Z,101454.04
2022-10-19T07:36:33.634Z,101459.96
2022-10-19T07:39:02.778Z,101458.58
2022-10-19T07:41:30.438Z,101462.38
2022-10-19T07:43:58.129Z,101460.86
2022-10-19T07:46:29.232Z,101464.86
2022-10-19T07:48:56.910Z,101462.02
2022-10-19T07:51:25.270Z,101459.35
2022-10-19T07:53:53.290Z,101460.27
2022-10-19T07:56:23.973Z,101465.48
2022-10-19T07:58:55.208Z,101459.20
2022-10-19T08:01:26.883Z,101458.55
2022-10-19T08:04:43.362Z,101458.55
2022-10-19T08:06:45.248Z,101461.23
2022-10-19T08:09:27.689Z,101460.55
2022-10-19T08:12:00.851Z,101462.83
2022-10-19T08:14:28.605Z,101463.02
2022-10-19T08:16:56.426Z,101467.75
2022-10-19T08:19:24.232Z,101469.52
2022-10-19T08:21:52.998Z,101465.96
2022-10-19T08:24:21.137Z,101467.90
2022-10-19T08:26:51.255Z,101474.66
2022-10-19T08:29:21.070Z,101476.64
2022-10-19T08:31:50.159Z,101476.95
2022-10-19T08:34:17.877Z,101474.55
2022-10-19T08:36:47.037Z,101473.52
2022-10-19T08:39:14.805Z,101481.75
2022-10-19T08:42:16.109Z,101478.02
2022-10-19T08:45:07.766Z,101474.48
2022-10-19T08:47:53.766Z,101473.79
2022-10-19T08:50:34.315Z,101480.13
2022-10-19T08:53:06.721Z,101480.35
2022-10-19T08:56:45.713Z,101475.15
2022-10-19T08:59:36.498Z,101480.45
2022-10-19T09:02:54.266Z,101477.12
2022-10-19T09:05:32.494Z,101477.95
2022-10-19T09:08:00.285Z,101478.70
2022-10-19T09:10:37.381Z,101482.40
2022-10-19T09:13:36.385Z,101481.76
2022-10-19T09:16:19.415Z,101482.41
2022-10-19T09:18:47.199Z,101485.42
2022-10-19T09:21:30.957Z,101485.24
2022-10-19T09:24:28.285Z,101489.85
2022-10-19T09:27:00.462Z,101489.71
2022-10-19T09:29:43.734Z,101492.18
2022-10-19T09:32:20.850Z,101491.44
2022-10-19T09:34:54.251Z,101492.41
2022-10-19T09:37:26.347Z,101494.77
2022-10-19T09:39:56.205Z,101501.39
2022-10-19T09:42:30.240Z,101495.79
2022-10-19T09:45:01.772Z,101496.46
2022-10-19T09:47:39.682Z,101501.55
2022-10-19T09:50:25.994Z,101500.16
2022-10-19T09:53:02.614Z,101505.34
2022-10-19T09:55:43.866Z,101501.39
2022-10-19T09:58:14.388Z,101511.10
2022-10-19T10:00:50.472Z,101512.18
2022-10-19T10:03:40.765Z,101513.02
2022-10-19T10:06:14.311Z,101513.23
2022-10-19T10:08:57.819Z,101512.05
2022-10-19T10:11:37.757Z,101512.33
2022-10-19T10:14:30.301Z,101520.27
2022-10-19T10:17:08.016Z,101527.00
2022-10-19T10:19:36.110Z,101536.17
2022-10-19T10:22:04.474Z,101533.64
2022-10-19T10:24:34.246Z,101529.11
2022-10-19T10:27:06.223Z,101527.14
2022-10-19T10:29:38.949Z,101545.80
2022-10-19T10:32:19.727Z,101552.88
2022-10-19T10:35:15.230Z,101553.75
2022-10-19T10:37:46.981Z,101552.27
2022-10-19T10:40:27.867Z,101547.66
2022-10-19T10:43:08.774Z,101549.85
2022-10-19T10:45:45.198Z,101550.79
2022-10-19T10:48:38.304Z,101548.38
2022-10-19T10:51:32.449Z,101552.75
2022-10-19T10:54:31.626Z,101557.06
2022-10-19T10:57:12.988Z,101553.65
2022-10-19T11:00:08.017Z,101560.23
2022-10-19T11:03:06.482Z,101566.13
2022-10-19T11:05:45.332Z,101561.11
2022-10-19T11:08:22.538Z,101562.91
2022-10-19T11:11:24.952Z,101565.73
2022-10-19T11:14:00.255Z,101558.97
2022-10-19T11:16:50.149Z,101569.42
2022-10-19T11:19:45.452Z,101561.39
2022-10-19T11:22:58.577Z,101565.67
2022-10-19T11:26:04.124Z,101566.63
2022-10-19T11:29:00.207Z,101564.06
2022-10-19T11:31:55.238Z,101559.24
2022-10-19T11:34:56.077Z,101563.65
2022-10-19T11:38:17.587Z,101561.89
2022-10-19T11:41:17.746Z,101560.13
2022-10-19T11:44:32.739Z,101554.17
2022-10-19T11:47:43.909Z,101555.48
2022-10-19T11:50:36.192Z,101557.31
2022-10-19T11:53:10.073Z,101552.31
2022-10-19T11:55:58.325Z,101557.80
2022-10-19T11:58:43.418Z,101556.77
2022-10-19T12:01:52.191Z,101555.86
2022-10-19T12:04:51.895Z,101552.15
2022-10-19T12:08:14.089Z,101548.71
2022-10-19T12:10:54.893Z,101548.65
2022-10-19T12:13:36.438Z,101547.30
2022-10-19T12:16:07.230Z,101548.71
2022-10-19T12:18:45.589Z,101547.84
2022-10-19T12:21:38.938Z,101557.49
2022-10-19T12:24:13.848Z,101552.14
2022-10-19T12:26:43.762Z,101553.45
2022-10-19T12:29:22.631Z,101554.08
2022-10-19T12:31:52.458Z,101552.64
2022-10-19T12:34:50.766Z,101551.03
2022-10-19T12:37:47.388Z,101548.33
2022-10-19T12:40:46.246Z,101550.66
2022-10-19T12:43:31.483Z,101550.83
2022-10-19T12:46:49.603Z,101547.81
2022-10-19T12:49:26.289Z,101551.48
2022-10-19T12:51:56.629Z,101550.73
2022-10-19T12:54:28.184Z,101552.99
2022-10-19T12:56:58.549Z,101553.98
2022-10-19T12:59:31.417Z,101550.31
2022-10-19T13:02:01.093Z,101551.98
2022-10-19T13:04:36.141Z,101554.43
2022-10-19T13:07:10.820Z,101552.63
2022-10-19T13:09:42.625Z,101556.70
2022-10-19T13:12:16.232Z,101558.38
2022-10-19T13:15:05.016Z,101558.64
2022-10-19T13:17:36.795Z,101558.32
2022-10-19T13:20:28.525Z,101554.95
2022-10-19T13:22:59.340Z,101545.59
2022-10-19T13:25:35.111Z,101560.81
2022-10-19T13:28:05.836Z,101562.64
2022-10-19T13:30:37.168Z,101563.11
2022-10-19T13:33:29.852Z,101562.30
2022-10-19T13:36:00.501Z,101567.09
2022-10-19T13:39:07.987Z,101568.98
2022-10-19T13:41:38.784Z,101571.45
2022-10-19T13:44:12.007Z,101571.87
2022-10-19T13:47:29.554Z,101574.84
2022-10-19T13:50:21.898Z,101576.52
2022-10-19T13:53:15.598Z,101577.39
2022-10-19T13:56:01.767Z,101571.84
2022-10-19T13:59:19.463Z,101573.94
2022-10-19T14:02:41.218Z,101572.45
2022-10-19T14:08:31.061Z,101573.80
2022-10-19T14:11:19.207Z,101573.98
2022-10-19T14:14:18.166Z,101577.05
2022-10-19T14:16:54.446Z,101579.25
2022-10-19T14:19:41.290Z,101577.35
2022-10-19T14:22:34.515Z,101579.83
2022-10-19T14:25:20.815Z,101578.83
2022-10-19T14:27:56.711Z,101577.83
2022-10-19T14:30:31.358Z,101579.56
2022-10-19T14:33:02.526Z,101577.09
2022-10-19T14:35:35.566Z,101580.90
2022-10-19T14:38:16.483Z,101585.39
2022-10-19T14:40:44.178Z,101583.83
2022-10-19T14:43:27.633Z,101583.40
2022-10-19T14:46:13.680Z,101585.29
2022-10-19T14:48:50.505Z,101589.39
2022-10-19T14:51:35.567Z,101590.13
2022-10-19T14:54:26.372Z,101594.27
2022-10-19T14:57:24.711Z,101596.98
2022-10-19T14:59:58.874Z,101592.54
2022-10-19T15:02:44.267Z,101596.25
2022-10-19T15:05:26.469Z,101604.27
2022-10-19T15:07:55.128Z,101606.69
2022-10-19T15:10:39.226Z,101599.40
2022-10-19T15:13:07.673Z,101602.94
2022-10-19T15:15:36.253Z,101605.36
2022-10-19T15:18:06.427Z,101607.75
2022-10-19T15:20:49.351Z,101611.73
2022-10-19T15:23:42.741Z,101611.58
2022-10-19T15:26:26.926Z,101611.20
2022-10-19T15:29:07.916Z,101611.01
2022-10-19T15:31:35.972Z,101613.83
2022-10-19T15:34:05.203Z,101613.45
2022-10-19T15:36:33.501Z,101614.54
2022-10-19T15:39:24.470Z,101615.09
2022-10-19T15:41:53.111Z,101620.70
2022-10-19T15:44:43.401Z,101625.73
2022-10-19T15:47:14.431Z,101628.80
2022-10-19T15:49:42.102Z,101629.75
2022-10-19T15:52:22.173Z,101633.89
2022-10-19T15:54:56.528Z,101631.90
2022-10-19T15:57:36.918Z,101636.26
2022-10-19T16:00:17.748Z,101636.61
2022-10-19T16:02:45.597Z,101641.20
2022-10-19T16:05:13.257Z,101643.21
2022-10-19T16:07:41.831Z,101648.02
2022-10-19T16:10:18.727Z,101650.27
2022-10-19T16:12:46.504Z,101649.02
2022-10-19T16:15:21.993Z,101653.22
2022-10-19T16:17:55.559Z,101656.71
2022-10-19T16:20:25.512Z,101656.92
2022-10-19T16:22:54.059Z,101662.72
2022-10-19T16:25:21.837Z,101665.36
2022-10-19T16:27:49.676Z,101669.33
2022-10-19T16:30:17.693Z,101666.37
2022-10-19T16:32:48.567Z,101670.09
2022-10-19T16:35:17.050Z,101665.22
2022-10-19T16:37:44.836Z,101670.38
2022-10-19T16:40:12.601Z,101671.93
2022-10-19T16:42:40.443Z,101672.98
2022-10-19T16:45:10.298Z,101677.59
2022-10-19T16:47:37.960Z,101675.23
2022-10-19T16:50:06.675Z,101677.23
2022-10-19T16:52:34.907Z,101681.50
2022-10-19T16:55:03.218Z,101684.00
2022-10-19T16:57:30.877Z,101686.81
2022-10-19T16:59:58.562Z,101688.05
2022-10-19T17:02:26.473Z,101692.70
2022-10-19T17:04:54.226Z,101693.89
2022-10-19T17:07:22.253Z,101694.30
2022-10-19T17:09:54.472Z,101697.28
2022-10-19T17:12:22.833Z,101703.41
2022-10-19T17:14:51.553Z,101707.12
2022-10-19T17:17:19.326Z,101707.36
2022-10-19T17:19:48.211Z,101709.25
2022-10-19T17:22:15.927Z,101714.73
2022-10-19T17:24:46.199Z,101718.31
2022-10-19T17:27:14.097Z,101725.02
2022-10-19T17:29:42.380Z,101722.59
2022-10-19T17:32:10.061Z,101729.00
2022-10-19T17:34:37.868Z,101730.27
2022-10-19T17:37:07.039Z,101730.85
2022-10-19T17:39:34.748Z,101735.77
2022-10-19T17:42:04.888Z,101736.05
2022-10-19T17:44:32.603Z,101730.23
2022-10-19T17:47:01.234Z,101731.18
2022-10-19T17:49:29.860Z,101732.02
2022-10-19T17:51:58.085Z,101730.71
2022-10-19T17:54:25.913Z,101735.37
2022-10-19T17:56:54.457Z,101737.86
2022-10-19T17:59:34.987Z,101738.70
2022-10-19T18:02:04.750Z,101733.34
2022-10-19T18:04:32.689Z,101745.34
2022-10-19T18:07:00.514Z,101736.23
2022-10-19T18:09:28.322Z,101749.28
2022-10-19T18:11:56.023Z,101754.30
2022-10-19T18:14:23.676Z,101754.63
2022-10-19T18:16:52.006Z,101758.33
2022-10-19T18:19:19.796Z,101761.55
2022-10-19T18:21:49.116Z,101762.98
2022-10-19T18:24:20.163Z,101761.92
2022-10-19T18:26:50.535Z,101759.94
2022-10-19T18:29:22.943Z,101761.31
2022-10-19T18:31:52.424Z,101763.74
2022-10-19T18:34:24.669Z,101766.13
2022-10-19T18:36:53.588Z,101768.88
2022-10-19T18:39:23.142Z,101766.48
2022-10-19T18:41:54.495Z,101767.95
2022-10-19T18:44:26.517Z,101767.77
2022-10-19T18:46:56.830Z,101767.52
2022-10-19T18:49:24.943Z,101768.23
2022-10-19T18:51:55.429Z,101767.29
2022-10-19T18:54:27.752Z,101769.55
2022-10-19T18:56:55.813Z,101769.99
2022-10-19T18:59:23.786Z,101769.21
2022-10-19T19:01:53.099Z,101767.08
2022-10-19T19:04:21.180Z,101767.21
2022-10-19T19:06:48.999Z,101770.56
2022-10-19T19:09:18.938Z,101776.56
2022-10-19T19:11:46.854Z,101778.75
2022-10-19T19:14:18.478Z,101783.55
2022-10-19T19:16:47.294Z,101788.79
2022-10-19T19:19:17.934Z,101794.14
2022-10-19T19:21:46.564Z,101795.14
2022-10-19T19:24:18.425Z,101794.65
2022-10-19T19:26:52.402Z,101792.19
2022-10-19T19:29:21.627Z,101792.70
2022-10-19T19:31:50.738Z,101792.49
2022-10-19T19:34:18.457Z,101797.39
2022-10-19T19:36:49.349Z,101796.24
2022-10-19T19:39:20.594Z,101799.35
2022-10-19T19:41:49.673Z,101803.07
2022-10-19T19:44:17.911Z,101804.82
2022-10-19T19:46:47.742Z,101807.13
2022-10-19T19:49:16.057Z,101802.70
2022-10-19T19:51:43.800Z,101801.17
2022-10-19T19:54:11.762Z,101803.20
2022-10-19T19:56:42.034Z,101804.15
2022-10-19T19:59:12.438Z,101806.39
2022-10-19T20:01:40.742Z,101807.38
2022-10-19T20:04:09.514Z,101806.17
2022-10-19T20:06:40.716Z,101806.84
2022-10-19T20:09:10.579Z,101812.53
2022-10-19T20:11:42.445Z,101811.38
2022-10-19T20:14:12.591Z,101810.10
2022-10-19T20:16:40.726Z,101809.83
2022-10-19T20:19:14.111Z,101812.63
2022-10-19T20:21:42.212Z,101813.14
2022-10-19T20:24:10.727Z,101818.64
2022-10-19T20:26:38.416Z,101817.46
2022-10-19T20:29:06.695Z,101818.56
2022-10-19T20:31:39.425Z,101820.34
2022-10-19T20:34:13.695Z,101827.27
2022-10-19T20:36:42.043Z,101827.32
2022-10-19T20:39:10.321Z,101826.98
2022-10-19T20:41:38.225Z,101829.45
2022-10-19T20:44:05.902Z,101828.57
2022-10-19T20:46:34.316Z,101824.71
2022-10-19T20:49:02.088Z,101817.57
2022-10-19T20:51:35.021Z,101818.32
2022-10-19T20:54:06.600Z,101821.63
2022-10-19T20:56:37.601Z,101821.11
2022-10-19T20:59:16.362Z,101822.34
2022-10-19T21:01:46.296Z,101825.63
2022-10-19T21:04:15.432Z,101828.25
2022-10-19T21:06:46.739Z,101829.00
2022-10-19T21:09:19.157Z,101828.86
2022-10-19T21:11:50.198Z,101828.73
2022-10-19T21:14:25.380Z,101828.27
2022-10-19T21:16:58.641Z,101829.51
2022-10-19T21:19:29.101Z,101830.55
2022-10-19T21:22:03.528Z,101829.35
2022-10-19T21:24:35.993Z,101834.34
2022-10-19T21:27:07.634Z,101831.67
2022-10-19T21:29:37.384Z,101833.53
2022-10-19T21:32:05.266Z,101838.86
2022-10-19T21:34:33.646Z,101839.84
2022-10-19T21:37:01.425Z,101837.54
2022-10-19T21:39:29.193Z,101836.30
2022-10-19T21:41:57.907Z,101838.48
2022-10-19T21:44:25.614Z,101839.48
2022-10-19T21:46:53.269Z,101840.28
2022-10-19T21:49:21.014Z,101837.06
2022-10-19T21:51:54.315Z,101835.30
2022-10-19T21:54:25.133Z,101833.95
2022-10-19T21:56:54.977Z,101832.17
2022-10-19T21:59:22.733Z,101829.20
2022-10-19T22:01:50.519Z,101831.04
2022-10-19T22:04:18.606Z,101835.79
2022-10-19T22:06:46.572Z,101830.59
2022-10-19T22:09:18.983Z,101834.00
2022-10-19T22:11:47.581Z,101838.15
2022-10-19T22:14:16.729Z,101842.30
2022-10-19T22:16:44.841Z,101843.08
2022-10-19T22:19:13.040Z,101843.44
2022-10-19T22:21:41.057Z,101842.68
2022-10-19T22:24:14.886Z,101844.53
2022-10-19T22:26:46.956Z,101848.77
2022-10-19T22:29:14.907Z,101851.77
2022-10-19T22:31:43.367Z,101856.25
2022-10-19T22:34:16.587Z,101858.83
2022-10-19T22:36:45.166Z,101850.91
2022-10-19T22:39:14.077Z,101850.25
2022-10-19T22:41:41.832Z,101849.16
2022-10-19T22:44:09.495Z,101854.38
2022-10-19T22:46:37.212Z,101855.66
2022-10-19T22:49:05.029Z,101852.69
2022-10-19T22:51:32.808Z,101853.36
2022-10-19T22:54:00.587Z,101855.14
2022-10-19T22:56:28.441Z,101852.66
2022-10-19T22:59:04.936Z,101856.90
2022-10-19T23:01:33.486Z,101859.48
2022-10-19T23:04:01.288Z,101862.17
2022-10-19T23:06:29.831Z,101864.02
2022-10-19T23:08:57.627Z,101860.93
2022-10-19T23:11:25.392Z,101867.63
2022-10-19T23:13:53.221Z,101866.16
2022-10-19T23:16:21.090Z,101869.66
2022-10-19T23:18:49.133Z,101874.61
2022-10-19T23:21:17.037Z,101873.71
2022-10-19T23:23:44.986Z,101874.66
2022-10-19T23:26:17.374Z,101871.77
2022-10-19T23:28:47.990Z,101869.57
2022-10-19T23:31:25.069Z,101872.08
2022-10-19T23:33:53.931Z,101869.31
2022-10-19T23:36:26.677Z,101869.95
2022-10-19T23:38:56.928Z,101874.41
2022-10-19T23:41:25.205Z,101872.60
2022-10-19T23:43:52.927Z,101876.11
2022-10-19T23:46:20.808Z,101877.52
2022-10-19T23:48:48.466Z,101883.80
2022-10-19T23:51:19.881Z,101885.25
2022-10-19T23:53:49.819Z,101881.08
2022-10-19T23:56:21.878Z,101881.11
2022-10-19T23:58:50.794Z,101881.05
